首页
METAR-TAF:

METAR-TAF

机场 :

利比里亚, 哥斯達黎加

纬度: 10-37N, 经度: 085-26W, 海拔: 80米

当前天气观测

该预报发布于4小时和3分钟前的06:00 UTC
风速3节,风向,在北转西北东北之间变化
温度 25°C
湿度 100%
气压 1011 hPa
能见度10公里或以上
少量云层高于4000英尺
多云层高于6000英尺

METAR: MRLB 190600Z 01003KT 340V040 9999 FEW040 BKN060 25/25 A2985

时间: 04:03 (10:03 UTC)

预报

该预报发布于4小时和48分钟前的05:15 UTC
预报有效从19日的 06点(UTC)到 20日的 06点(UTC)
风速6节,风向南转南东
能见度10公里或以上
散云层高于3000英尺
短暂存在
从 19日的 10点(UTC)到 19日的 14点(UTC)
能見度: 5000
多云层高于1000英尺
轻雾
成为
从 19日的 17点(UTC)到 19日的 20点(UTC)
风速7节,风向西
短暂存在
从 19日的 20点(UTC)到 19日的 24点(UTC)
能見度: 5000
散云层高于1500英尺, 积雨云.
雷暴, 雨,

TAF: MRLB 190515Z 1906/2006 15006KT 9999 SCT030 TX30/1918Z TN21/1911Z TEMPO 1910/1914 5000 BR BKN010 BECMG 1917/1920 28007KT TEMPO 1920/1924 5000 TSRA SCT015CB

超过4000个机场的气象观测和天气预报(METAR&TAF报告)。

可查询的气象台以黄色和红色小点在地图上表示。

将鼠标移到小点上方,可查看气象台名称。

然后点击查看天气观测和预报。

如需切换地图:点击带黑十字的绿色按钮放大地图;点击带横线的绿色按钮缩小地图;或者点击绿色箭头查看邻近地区的地图。


METAR-TAF: